createdAt,value
2018-10-18T00:02:07.431Z,33.83
2018-10-18T00:04:36.548Z,29.50
2018-10-18T00:07:06.113Z,32.43
2018-10-18T00:09:35.312Z,35.63
2018-10-18T00:12:04.520Z,34.47
2018-10-18T00:14:33.617Z,35.67
2018-10-18T00:17:02.917Z,35.30
2018-10-18T00:19:32.056Z,37.27
2018-10-18T00:22:01.175Z,34.17
2018-10-18T00:24:30.280Z,37.27
2018-10-18T00:26:59.360Z,40.13
2018-10-18T00:29:28.526Z,38.17
2018-10-18T00:31:57.721Z,37.13
2018-10-18T00:34:26.782Z,32.73
2018-10-18T00:36:55.848Z,39.13
2018-10-18T00:39:24.979Z,37.97
2018-10-18T00:41:54.136Z,34.50
2018-10-18T00:44:23.212Z,39.23
2018-10-18T00:46:52.332Z,43.40
2018-10-18T00:49:21.413Z,41.23
2018-10-18T00:51:50.573Z,38.13
2018-10-18T00:54:19.665Z,40.27
2018-10-18T00:56:48.848Z,40.90
2018-10-18T00:59:21.033Z,36.63
2018-10-18T01:01:50.091Z,37.07
2018-10-18T01:04:19.251Z,40.70
2018-10-18T01:06:48.453Z,40.23
2018-10-18T01:09:17.671Z,43.27
2018-10-18T01:11:46.797Z,45.60
2018-10-18T01:14:15.923Z,39.27
2018-10-18T01:16:45.105Z,38.37
2018-10-18T01:19:14.253Z,42.97
2018-10-18T01:21:43.389Z,42.10
2018-10-18T01:24:12.535Z,42.13
2018-10-18T01:26:41.605Z,44.37
2018-10-18T01:29:19.763Z,36.30
2018-10-18T01:31:48.978Z,41.90
2018-10-18T01:34:18.033Z,39.10
2018-10-18T01:36:47.191Z,40.10
2018-10-18T01:39:16.387Z,39.70
2018-10-18T01:41:45.524Z,40.80
2018-10-18T01:44:14.892Z,40.90
2018-10-18T01:46:44.057Z,39.17
2018-10-18T01:49:13.293Z,37.87
2018-10-18T01:51:42.492Z,39.03
2018-10-18T01:54:11.737Z,41.80
2018-10-18T01:56:40.853Z,40.43
2018-10-18T01:59:09.946Z,43.47
2018-10-18T02:01:39.033Z,39.97
2018-10-18T02:04:08.200Z,41.67
2018-10-18T02:06:37.271Z,44.60
2018-10-18T02:09:10.327Z,40.07
2018-10-18T02:11:39.422Z,38.60
2018-10-18T02:14:08.644Z,34.33
2018-10-18T02:16:37.845Z,42.47
2018-10-18T02:19:07.102Z,41.53
2018-10-18T02:21:36.258Z,38.90
2018-10-18T02:24:05.897Z,36.50
2018-10-18T02:26:36.001Z,38.73
2018-10-18T02:29:05.218Z,40.90
2018-10-18T02:31:34.343Z,39.90
2018-10-18T02:34:03.793Z,37.67
2018-10-18T02:36:32.973Z,40.30
2018-10-18T02:39:02.224Z,40.37
2018-10-18T02:41:31.465Z,42.07
2018-10-18T02:44:00.573Z,44.37
2018-10-18T02:46:29.680Z,40.73
2018-10-18T02:48:58.768Z,40.00
2018-10-18T02:51:27.952Z,41.07
2018-10-18T02:53:57.189Z,39.30
2018-10-18T02:56:26.300Z,45.60
2018-10-18T02:58:55.452Z,36.80
2018-10-18T03:01:24.665Z,43.30
2018-10-18T03:03:53.894Z,42.17
2018-10-18T03:06:23.008Z,39.23
2018-10-18T03:08:52.187Z,39.93
2018-10-18T03:11:21.276Z,39.60
2018-10-18T03:13:50.552Z,41.70
2018-10-18T03:16:19.733Z,39.40
2018-10-18T03:18:48.820Z,41.40
2018-10-18T03:21:17.934Z,39.27
2018-10-18T03:23:47.219Z,41.20
2018-10-18T03:26:16.324Z,42.13
2018-10-18T03:28:45.463Z,38.47
2018-10-18T03:31:14.657Z,40.30
2018-10-18T03:33:43.792Z,36.57
2018-10-18T03:36:13.104Z,43.57
2018-10-18T03:38:42.215Z,39.40
2018-10-18T03:41:11.432Z,37.07
2018-10-18T03:43:40.569Z,39.03
2018-10-18T03:46:09.792Z,38.93
2018-10-18T03:48:38.865Z,43.77
2018-10-18T03:51:08.064Z,35.57
2018-10-18T03:53:37.190Z,46.27
2018-10-18T03:56:06.953Z,38.53
2018-10-18T03:58:36.144Z,40.93
2018-10-18T04:01:05.334Z,44.53
2018-10-18T04:03:34.532Z,42.10
2018-10-18T04:06:03.746Z,41.30
2018-10-18T04:08:32.912Z,40.27
2018-10-18T04:11:02.017Z,40.57
2018-10-18T04:13:31.223Z,49.53
2018-10-18T04:16:00.393Z,39.63
2018-10-18T04:18:29.512Z,40.37
2018-10-18T04:20:58.787Z,39.80
2018-10-18T04:23:31.684Z,42.47
2018-10-18T04:26:01.361Z,44.53
2018-10-18T04:28:30.987Z,38.47
2018-10-18T04:31:00.684Z,43.37
2018-10-18T04:33:30.247Z,39.40
2018-10-18T04:35:59.450Z,47.90
2018-10-18T04:38:28.588Z,43.47
2018-10-18T04:40:57.691Z,43.57
2018-10-18T04:43:26.851Z,45.37
2018-10-18T04:45:55.983Z,46.30
2018-10-18T04:48:25.312Z,41.17
2018-10-18T04:50:54.492Z,39.60
2018-10-18T04:53:23.627Z,39.57
2018-10-18T04:55:52.721Z,42.60
2018-10-18T04:58:21.940Z,47.17
2018-10-18T05:00:51.012Z,42.07
2018-10-18T05:03:20.490Z,39.70
2018-10-18T05:05:52.935Z,42.40
2018-10-18T05:08:23.340Z,45.73
2018-10-18T05:10:52.400Z,41.07
2018-10-18T05:13:21.559Z,44.33
2018-10-18T05:15:50.793Z,46.10
2018-10-18T05:18:20.447Z,45.33
2018-10-18T05:20:53.944Z,41.57
2018-10-18T05:23:23.094Z,42.07
2018-10-18T05:25:52.347Z,38.23
2018-10-18T05:28:21.617Z,40.83
2018-10-18T05:30:50.767Z,42.90
2018-10-18T05:33:19.911Z,39.43
2018-10-18T05:35:49.034Z,45.77
2018-10-18T05:38:18.194Z,41.27
2018-10-18T05:40:47.372Z,44.70
2018-10-18T05:43:16.660Z,41.47
2018-10-18T05:45:45.732Z,40.33
2018-10-18T05:48:14.852Z,44.30
2018-10-18T05:50:43.961Z,45.27
2018-10-18T05:53:13.177Z,44.17
2018-10-18T05:55:42.166Z,43.93
2018-10-18T05:58:11.313Z,42.37
2018-10-18T06:00:40.513Z,36.40
2018-10-18T06:03:09.708Z,39.37
2018-10-18T06:05:38.869Z,44.60
2018-10-18T06:08:16.743Z,39.00
2018-10-18T06:10:56.754Z,40.57
2018-10-18T06:13:25.852Z,41.70
2018-10-18T06:15:55.025Z,41.53
2018-10-18T06:18:24.156Z,46.10
2018-10-18T06:20:53.411Z,42.17
2018-10-18T06:23:22.565Z,40.87
2018-10-18T06:25:51.676Z,42.07
2018-10-18T06:28:20.852Z,39.90
2018-10-18T06:30:50.047Z,38.57
2018-10-18T06:33:19.173Z,39.40
2018-10-18T06:35:48.359Z,43.87
2018-10-18T06:38:17.485Z,48.07
2018-10-18T06:40:46.721Z,43.63
2018-10-18T06:43:15.984Z,53.33
2018-10-18T06:45:45.123Z,46.17
2018-10-18T06:48:14.307Z,46.33
2018-10-18T06:50:43.455Z,40.20
2018-10-18T06:53:12.793Z,45.00
2018-10-18T06:55:41.952Z,42.43
2018-10-18T06:58:11.113Z,44.17
2018-10-18T07:00:40.268Z,42.07
2018-10-18T07:03:09.460Z,41.37
2018-10-18T07:05:38.614Z,45.43
2018-10-18T07:08:07.813Z,45.93
2018-10-18T07:10:36.949Z,46.50
2018-10-18T07:13:06.722Z,44.43
2018-10-18T07:15:35.866Z,37.43
2018-10-18T07:18:05.166Z,41.23
2018-10-18T07:20:34.375Z,49.67
2018-10-18T07:23:03.569Z,47.67
2018-10-18T07:25:32.613Z,42.93
2018-10-18T07:28:01.797Z,49.97
2018-10-18T07:30:30.967Z,50.13
2018-10-18T07:33:00.148Z,50.97
2018-10-18T07:35:29.341Z,41.27
2018-10-18T07:37:58.552Z,45.90
2018-10-18T07:40:27.631Z,47.30
2018-10-18T07:42:56.810Z,52.93
2018-10-18T07:45:25.972Z,44.97
2018-10-18T07:47:55.080Z,42.87
2018-10-18T07:50:24.248Z,47.30
2018-10-18T07:52:53.303Z,49.40
2018-10-18T07:55:22.474Z,48.17
2018-10-18T07:57:51.671Z,45.03
2018-10-18T08:00:21.011Z,44.90
2018-10-18T08:02:50.130Z,45.47
2018-10-18T08:05:19.325Z,44.10
2018-10-18T08:07:48.529Z,42.77
2018-10-18T08:10:18.884Z,39.70
2018-10-18T08:12:48.189Z,43.67
2018-10-18T08:15:17.978Z,40.90
2018-10-18T08:17:47.152Z,45.90
2018-10-18T08:20:16.335Z,46.87
2018-10-18T08:22:45.507Z,51.80
2018-10-18T08:25:14.691Z,64.67
2018-10-18T08:27:43.773Z,66.50
2018-10-18T08:30:13.897Z,92.30
2018-10-18T08:32:43.099Z,76.53
2018-10-18T08:35:13.038Z,55.63
2018-10-18T08:37:42.202Z,70.47
2018-10-18T08:40:11.353Z,77.17
2018-10-18T08:42:40.571Z,83.03
2018-10-18T08:45:10.932Z,65.10
2018-10-18T08:47:40.120Z,71.07
2018-10-18T08:50:10.957Z,64.43
2018-10-18T08:52:40.273Z,70.37
2018-10-18T08:55:12.170Z,64.10
2018-10-18T08:57:41.348Z,60.77
2018-10-18T09:00:11.913Z,58.73
2018-10-18T09:02:42.072Z,58.97
2018-10-18T09:05:11.675Z,54.97
2018-10-18T09:07:40.756Z,63.37
2018-10-18T09:10:10.033Z,50.03
2018-10-18T09:12:39.164Z,49.13
2018-10-18T09:15:09.334Z,50.73
2018-10-18T09:17:38.905Z,53.17
2018-10-18T09:20:08.322Z,58.03
2018-10-18T09:22:38.144Z,55.90
2018-10-18T09:25:09.017Z,51.90
2018-10-18T09:27:38.174Z,59.30
2018-10-18T09:30:08.976Z,55.80
2018-10-18T09:32:38.231Z,59.33
2018-10-18T09:35:07.559Z,56.03
2018-10-18T09:37:36.715Z,60.17
2018-10-18T09:40:07.053Z,65.57
2018-10-18T09:42:36.249Z,57.23
2018-10-18T09:45:06.636Z,51.10
2018-10-18T09:47:35.833Z,55.67
2018-10-18T09:50:05.074Z,62.83
2018-10-18T09:52:34.266Z,62.50
2018-10-18T09:55:03.450Z,61.50
2018-10-18T09:57:32.605Z,55.10
2018-10-18T10:00:06.695Z,59.13
2018-10-18T10:02:37.214Z,62.30
2018-10-18T10:05:06.568Z,59.10
2018-10-18T10:07:35.673Z,57.90
2018-10-18T10:10:05.007Z,57.37
2018-10-18T10:12:34.176Z,58.87
2018-10-18T10:15:03.317Z,54.77
2018-10-18T10:17:32.532Z,54.73
2018-10-18T10:20:01.610Z,57.63
2018-10-18T10:22:30.847Z,52.03
2018-10-18T10:25:00.085Z,48.80
2018-10-18T10:27:29.251Z,53.13
2018-10-18T10:29:58.412Z,55.13
2018-10-18T10:32:27.544Z,51.67
2018-10-18T10:34:56.713Z,52.50
2018-10-18T10:37:25.802Z,47.80
2018-10-18T10:39:54.887Z,44.63
2018-10-18T10:42:23.991Z,45.60
2018-10-18T10:44:53.209Z,44.57
2018-10-18T10:47:22.375Z,45.47
2018-10-18T10:49:51.560Z,43.90
2018-10-18T10:52:20.723Z,49.90
2018-10-18T10:54:49.893Z,40.57
2018-10-18T10:57:19.204Z,44.33
2018-10-18T10:59:48.250Z,44.00
2018-10-18T11:02:17.552Z,41.63
2018-10-18T11:04:46.637Z,36.80
2018-10-18T11:07:15.740Z,44.47
2018-10-18T11:09:44.988Z,50.33
2018-10-18T11:12:14.200Z,41.17
2018-10-18T11:14:43.456Z,36.03
2018-10-18T11:17:12.596Z,43.37
2018-10-18T11:19:41.791Z,39.43
2018-10-18T11:22:10.970Z,39.73
2018-10-18T11:24:40.210Z,41.53
2018-10-18T11:27:09.523Z,39.90
2018-10-18T11:29:38.689Z,38.80
2018-10-18T11:32:08.038Z,43.60
2018-10-18T11:34:37.392Z,39.00
2018-10-18T11:37:06.811Z,41.03
2018-10-18T11:39:35.987Z,41.60
2018-10-18T11:42:05.253Z,42.17
2018-10-18T11:44:39.305Z,35.17
2018-10-18T11:47:09.372Z,38.27
2018-10-18T11:49:38.895Z,36.90
2018-10-18T11:52:08.312Z,39.97
2018-10-18T11:54:37.437Z,34.80
2018-10-18T11:57:06.655Z,35.50
2018-10-18T11:59:35.792Z,35.53
2018-10-18T12:02:05.153Z,34.37
2018-10-18T12:04:34.231Z,35.67
2018-10-18T12:07:03.496Z,37.63
2018-10-18T12:09:32.575Z,40.63
2018-10-18T12:12:01.745Z,41.00
2018-10-18T12:14:30.970Z,40.43
2018-10-18T12:17:00.160Z,32.63
2018-10-18T12:19:29.328Z,37.87
2018-10-18T12:21:58.592Z,36.20
2018-10-18T12:24:27.774Z,33.00
2018-10-18T12:26:56.898Z,36.80
2018-10-18T12:29:26.034Z,35.70
2018-10-18T12:31:55.154Z,35.00
2018-10-18T12:34:24.354Z,37.10
2018-10-18T12:36:53.592Z,30.37
2018-10-18T12:39:22.735Z,35.50
2018-10-18T12:41:51.903Z,35.40
2018-10-18T12:44:20.988Z,34.40
2018-10-18T12:46:50.142Z,30.03
2018-10-18T12:49:19.322Z,32.90
2018-10-18T12:51:48.592Z,30.37
2018-10-18T12:54:17.840Z,34.17
2018-10-18T12:56:46.934Z,32.77
2018-10-18T12:59:16.012Z,31.57
2018-10-18T13:01:45.256Z,33.93
2018-10-18T13:04:14.357Z,32.70
2018-10-18T13:06:55.262Z,32.53
2018-10-18T13:09:24.624Z,30.40
2018-10-18T13:11:53.760Z,34.73
2018-10-18T13:14:22.947Z,28.13
2018-10-18T13:16:52.089Z,29.90
2018-10-18T13:19:21.252Z,29.87
2018-10-18T13:21:50.421Z,30.07
2018-10-18T13:24:19.743Z,28.00
2018-10-18T13:26:48.897Z,31.50
2018-10-18T13:29:18.053Z,29.23
2018-10-18T13:31:47.388Z,29.50
2018-10-18T13:34:16.530Z,29.83
2018-10-18T13:36:45.627Z,27.27
2018-10-18T13:39:15.892Z,31.17
2018-10-18T13:41:44.986Z,32.47
2018-10-18T13:44:14.350Z,34.10
2018-10-18T13:46:43.560Z,30.67
2018-10-18T13:49:12.846Z,30.17
2018-10-18T13:51:42.005Z,31.23
2018-10-18T13:54:11.098Z,32.50
2018-10-18T13:56:40.233Z,31.40
2018-10-18T13:59:20.376Z,26.90
2018-10-18T14:01:49.457Z,31.27
2018-10-18T14:04:18.558Z,30.23
2018-10-18T14:06:54.440Z,29.07
2018-10-18T14:09:23.591Z,29.13
2018-10-18T14:11:52.832Z,26.90
2018-10-18T14:14:22.073Z,31.70
2018-10-18T14:16:51.268Z,32.77
2018-10-18T14:19:20.480Z,28.03
2018-10-18T14:21:49.700Z,27.03
2018-10-18T14:24:18.893Z,23.37
2018-10-18T14:26:48.023Z,23.97
2018-10-18T14:29:17.387Z,23.43
2018-10-18T14:31:46.347Z,27.30
2018-10-18T14:34:15.633Z,31.83
2018-10-18T14:36:44.771Z,23.83
2018-10-18T14:39:13.945Z,28.10
2018-10-18T14:41:43.269Z,24.47
2018-10-18T14:44:12.488Z,23.67
2018-10-18T14:46:41.687Z,24.43
2018-10-18T14:49:10.852Z,23.10
2018-10-18T14:51:39.991Z,25.03
2018-10-18T14:54:09.132Z,25.20
2018-10-18T14:56:38.241Z,22.23
2018-10-18T14:59:07.460Z,23.70
2018-10-18T15:01:36.576Z,26.70
2018-10-18T15:04:06.672Z,33.47
2018-10-18T15:06:35.872Z,31.00
2018-10-18T15:09:06.991Z,26.20
2018-10-18T15:11:36.125Z,31.40
2018-10-18T15:14:05.587Z,28.60
2018-10-18T15:16:34.672Z,26.77
2018-10-18T15:19:03.912Z,27.00
2018-10-18T15:21:33.167Z,28.57
2018-10-18T15:24:02.365Z,25.50
2018-10-18T15:26:31.635Z,28.60
2018-10-18T15:29:00.736Z,26.03
2018-10-18T15:31:29.955Z,27.03
2018-10-18T15:33:59.150Z,28.63
2018-10-18T15:36:28.395Z,28.10
2018-10-18T15:38:57.894Z,34.30
2018-10-18T15:41:27.052Z,28.63
2018-10-18T15:43:56.302Z,28.97
2018-10-18T15:46:25.481Z,32.97
2018-10-18T15:48:54.590Z,28.40
2018-10-18T15:51:23.694Z,30.50
2018-10-18T15:53:52.852Z,31.97
2018-10-18T15:56:22.131Z,30.17
2018-10-18T15:58:51.232Z,35.20
2018-10-18T16:01:20.477Z,33.43
2018-10-18T16:03:50.090Z,30.83
2018-10-18T16:06:19.271Z,31.97
2018-10-18T16:08:48.523Z,30.70
2018-10-18T16:11:17.730Z,34.27
2018-10-18T16:13:46.896Z,29.23
2018-10-18T16:16:16.064Z,30.60
2018-10-18T16:18:45.216Z,32.10
2018-10-18T16:21:14.357Z,29.43
2018-10-18T16:23:43.562Z,32.87
2018-10-18T16:26:12.852Z,32.60
2018-10-18T16:28:41.989Z,34.53
2018-10-18T16:31:11.148Z,34.50
2018-10-18T16:33:40.361Z,34.23
2018-10-18T16:36:09.543Z,32.50
2018-10-18T16:38:38.792Z,30.73
2018-10-18T16:41:08.189Z,35.67
2018-10-18T16:43:37.185Z,32.70
2018-10-18T16:46:06.478Z,36.60
2018-10-18T16:48:35.646Z,35.50
2018-10-18T16:51:05.069Z,34.37
2018-10-18T16:53:34.328Z,36.13
2018-10-18T16:56:03.788Z,35.63
2018-10-18T16:58:32.977Z,36.17
2018-10-18T17:01:02.046Z,39.00
2018-10-18T17:03:31.282Z,37.37
2018-10-18T17:06:00.511Z,40.20
2018-10-18T17:08:29.797Z,43.57
2018-10-18T17:10:58.978Z,43.27
2018-10-18T17:13:28.210Z,40.80
2018-10-18T17:15:57.386Z,43.77
2018-10-18T17:18:26.656Z,47.90
2018-10-18T17:20:55.858Z,46.23
2018-10-18T17:23:25.193Z,45.33
2018-10-18T17:25:54.465Z,46.30
2018-10-18T17:28:23.800Z,46.13
2018-10-18T17:30:52.908Z,46.73
2018-10-18T17:33:22.133Z,57.30
2018-10-18T17:35:51.344Z,46.77
2018-10-18T17:38:20.681Z,42.90
2018-10-18T17:40:49.898Z,41.83
2018-10-18T17:43:19.126Z,44.40
2018-10-18T17:45:48.232Z,45.07
2018-10-18T17:48:17.505Z,41.67
2018-10-18T17:50:46.928Z,40.40
2018-10-18T17:53:16.132Z,37.53
2018-10-18T17:55:45.453Z,34.23
2018-10-18T17:58:14.719Z,36.17
2018-10-18T18:00:43.954Z,35.63
2018-10-18T18:03:13.055Z,34.23
2018-10-18T18:05:42.582Z,29.07
2018-10-18T18:08:12.032Z,30.60
2018-10-18T18:10:41.280Z,29.97
2018-10-18T18:13:10.578Z,31.63
2018-10-18T18:15:40.071Z,32.47
2018-10-18T18:18:09.494Z,29.00
2018-10-18T18:20:39.015Z,33.40
2018-10-18T18:23:08.339Z,34.40
2018-10-18T18:25:37.752Z,31.90
2018-10-18T18:28:07.171Z,35.13
2018-10-18T18:30:36.555Z,33.77
2018-10-18T18:33:06.076Z,33.13
2018-10-18T18:35:35.617Z,36.87
2018-10-18T18:38:05.500Z,33.37
2018-10-18T18:40:34.849Z,41.20
2018-10-18T18:43:04.156Z,34.73
2018-10-18T18:45:35.541Z,34.67
2018-10-18T18:48:05.611Z,32.30
2018-10-18T18:50:35.280Z,38.33
2018-10-18T18:53:04.644Z,34.30
2018-10-18T18:55:34.141Z,30.73
2018-10-18T18:58:03.512Z,35.30
2018-10-18T19:00:32.996Z,39.83
2018-10-18T19:03:02.605Z,32.77
2018-10-18T19:05:32.153Z,38.17
2018-10-18T19:08:01.706Z,40.93
2018-10-18T19:10:31.212Z,41.77
2018-10-18T19:13:00.808Z,47.23
2018-10-18T19:15:30.373Z,40.90
2018-10-18T19:17:59.890Z,48.97
2018-10-18T19:20:29.313Z,46.47
2018-10-18T19:22:58.754Z,49.70
2018-10-18T19:25:28.033Z,39.47
2018-10-18T19:27:57.492Z,39.07
2018-10-18T19:30:26.984Z,44.23
2018-10-18T19:32:56.479Z,44.87
2018-10-18T19:35:25.961Z,38.53
2018-10-18T19:37:55.225Z,42.53
2018-10-18T19:40:24.692Z,44.23
2018-10-18T19:42:54.024Z,47.60
2018-10-18T19:45:23.656Z,43.07
2018-10-18T19:47:53.279Z,34.90
2018-10-18T19:50:22.713Z,41.97
2018-10-18T19:52:52.131Z,41.80
2018-10-18T19:55:21.611Z,38.23
2018-10-18T19:57:51.036Z,37.77
2018-10-18T20:00:20.583Z,37.03
2018-10-18T20:02:49.787Z,35.50
2018-10-18T20:05:19.055Z,43.03
2018-10-18T20:07:49.939Z,37.10
2018-10-18T20:10:19.372Z,33.57
2018-10-18T20:12:48.716Z,37.10
2018-10-18T20:15:18.148Z,34.73
2018-10-18T20:17:47.313Z,36.43
2018-10-18T20:20:16.556Z,30.60
2018-10-18T20:22:45.673Z,41.87
2018-10-18T20:25:15.120Z,37.37
2018-10-18T20:27:44.444Z,33.97
2018-10-18T20:30:15.083Z,39.90
2018-10-18T20:32:44.665Z,33.97
2018-10-18T20:35:14.022Z,37.97
2018-10-18T20:37:43.155Z,32.77
2018-10-18T20:40:15.593Z,33.50
2018-10-18T20:42:44.720Z,34.57
2018-10-18T20:45:19.152Z,35.47
2018-10-18T20:47:48.489Z,43.90
2018-10-18T20:50:17.552Z,38.93
2018-10-18T20:52:46.618Z,33.57
2018-10-18T20:55:23.768Z,37.57
2018-10-18T20:57:52.785Z,40.33
2018-10-18T21:00:21.943Z,40.80
2018-10-18T21:02:51.034Z,39.80
2018-10-18T21:05:20.191Z,36.83
2018-10-18T21:07:49.299Z,40.33
2018-10-18T21:10:18.472Z,39.50
2018-10-18T21:12:47.557Z,41.80
2018-10-18T21:15:16.851Z,41.17
2018-10-18T21:17:45.999Z,43.03
2018-10-18T21:20:15.051Z,42.53
2018-10-18T21:22:44.314Z,52.90
2018-10-18T21:25:13.467Z,49.27
2018-10-18T21:27:42.747Z,43.47
2018-10-18T21:30:11.892Z,53.17
2018-10-18T21:32:41.004Z,47.33
2018-10-18T21:35:10.299Z,47.07
2018-10-18T21:37:39.372Z,43.37
2018-10-18T21:40:08.477Z,46.37
2018-10-18T21:42:37.563Z,43.27
2018-10-18T21:45:06.759Z,42.17
2018-10-18T21:47:36.058Z,44.90
2018-10-18T21:50:05.466Z,46.50
2018-10-18T21:52:34.573Z,46.83
2018-10-18T21:55:03.813Z,41.93
2018-10-18T21:57:32.952Z,47.10
2018-10-18T22:00:02.088Z,48.00
2018-10-18T22:02:31.197Z,50.20
2018-10-18T22:05:00.351Z,52.43
2018-10-18T22:07:29.463Z,57.33
2018-10-18T22:09:58.585Z,49.90
2018-10-18T22:12:27.654Z,55.27
2018-10-18T22:14:56.876Z,54.90
2018-10-18T22:17:26.059Z,61.10
2018-10-18T22:19:55.168Z,55.17
2018-10-18T22:22:24.364Z,61.70
2018-10-18T22:24:53.505Z,68.97
2018-10-18T22:27:22.778Z,74.97
2018-10-18T22:29:51.973Z,62.43
2018-10-18T22:32:21.168Z,67.80
2018-10-18T22:34:50.246Z,73.67
2018-10-18T22:37:19.475Z,66.37
2018-10-18T22:39:48.632Z,48.70
2018-10-18T22:42:17.843Z,55.23
2018-10-18T22:44:47.009Z,60.73
2018-10-18T22:47:16.212Z,61.43
2018-10-18T22:49:45.312Z,59.03
2018-10-18T22:52:14.512Z,61.10
2018-10-18T22:54:43.688Z,53.77
2018-10-18T22:57:12.930Z,65.50
2018-10-18T22:59:42.098Z,64.03
2018-10-18T23:02:11.308Z,43.50
2018-10-18T23:04:40.453Z,65.70
2018-10-18T23:07:09.635Z,67.53
2018-10-18T23:09:38.772Z,65.23
2018-10-18T23:12:07.953Z,51.20
2018-10-18T23:14:38.572Z,63.23
2018-10-18T23:17:07.833Z,69.50
2018-10-18T23:19:37.037Z,61.17
2018-10-18T23:22:07.754Z,52.23
2018-10-18T23:24:38.628Z,61.47
2018-10-18T23:27:09.022Z,55.10
2018-10-18T23:29:39.216Z,47.33
2018-10-18T23:32:09.096Z,57.63
2018-10-18T23:34:38.277Z,62.50
2018-10-18T23:37:07.427Z,62.53
2018-10-18T23:39:36.570Z,65.97
2018-10-18T23:42:05.696Z,63.67
2018-10-18T23:44:34.864Z,60.23
2018-10-18T23:47:04.056Z,66.30
2018-10-18T23:49:33.205Z,65.80
2018-10-18T23:52:02.448Z,62.63
2018-10-18T23:54:31.560Z,77.40
2018-10-18T23:57:00.797Z,62.73
2018-10-18T23:59:29.792Z,55.70
